Riverside, California
Current Conditions -  °F | °C
As of 6:01 AM on Friday 31 Oct 2014 (Local Time) from KRAL Reporting Station
Broken Clouds Broken Clouds  
Wind Chill: 57°   Ceiling: 1200
Heat Index: 57°   Visibility: 8mi
Dew Point: 54°   Wind: 0mph
Humidity: 89%   Direction: NA
Pressure: 29.96"   Gusts: NA
Location:  33.98°N, 117.37°W
Report Text: KRAL 311301Z AUTO 00000KT 8SM BKN012 14/12 A2996 RMK AO2 T01390122
Loading
Personal Weather Stations






























Interactive Weather Map New forecast layout! Learn more

10-Day Weather Forecast

Advertisements
Track Severe Weather on mobile